createdAt,value
2022-07-27T00:02:24.314Z,1.03
2022-07-27T00:05:28.163Z,1.30
2022-07-27T00:08:33.231Z,1.40
2022-07-27T00:11:36.908Z,0.87
2022-07-27T00:14:40.636Z,1.10
2022-07-27T00:17:44.654Z,1.33
2022-07-27T00:20:48.987Z,1.30
2022-07-27T00:23:54.595Z,1.20
2022-07-27T00:26:58.268Z,1.63
2022-07-27T00:30:01.987Z,1.40
2022-07-27T00:33:06.610Z,1.40
2022-07-27T00:36:10.873Z,1.43
2022-07-27T00:39:15.878Z,1.20
2022-07-27T00:42:27.295Z,1.30
2022-07-27T00:45:31.059Z,1.10
2022-07-27T00:48:34.713Z,1.87
2022-07-27T00:51:38.364Z,1.70
2022-07-27T00:54:44.804Z,1.60
2022-07-27T00:57:58.998Z,1.60
2022-07-27T01:01:03.371Z,1.57
2022-07-27T01:04:07.601Z,1.40
2022-07-27T01:07:13.059Z,1.27
2022-07-27T01:10:18.995Z,1.50
2022-07-27T01:13:23.875Z,1.80
2022-07-27T01:16:27.600Z,2.00
2022-07-27T01:19:31.310Z,1.87
2022-07-27T01:22:36.437Z,2.50
2022-07-27T01:25:43.982Z,2.77
2022-07-27T01:28:48.996Z,2.77
2022-07-27T01:31:52.658Z,2.63
2022-07-27T01:34:56.339Z,3.10
2022-07-27T01:38:01.843Z,2.73
2022-07-27T01:41:05.519Z,2.80
2022-07-27T01:44:09.566Z,2.67
2022-07-27T01:47:14.217Z,2.70
2022-07-27T01:50:18.796Z,2.30
2022-07-27T01:53:27.024Z,2.93
2022-07-27T01:56:30.708Z,2.90
2022-07-27T01:59:34.409Z,2.70
2022-07-27T02:02:38.203Z,3.13
2022-07-27T02:05:42.808Z,2.83
2022-07-27T02:08:47.829Z,2.60
2022-07-27T02:12:08.655Z,2.07
2022-07-27T02:15:15.777Z,2.43
2022-07-27T02:18:33.772Z,1.70
2022-07-27T02:21:40.480Z,2.10
2022-07-27T02:24:45.449Z,1.50
2022-07-27T02:27:49.698Z,2.17
2022-07-27T02:30:53.350Z,2.00
2022-07-27T02:33:57.018Z,1.57
2022-07-27T02:37:00.696Z,2.67
2022-07-27T02:40:07.152Z,2.20
2022-07-27T02:43:10.834Z,2.10
2022-07-27T02:46:14.478Z,2.03
2022-07-27T02:49:18.259Z,1.87
2022-07-27T02:52:22.736Z,2.23
2022-07-27T02:55:27.914Z,2.00
2022-07-27T02:58:31.557Z,1.70
2022-07-27T03:01:35.277Z,1.80
2022-07-27T03:04:39.101Z,2.07
2022-07-27T03:07:42.919Z,2.00
2022-07-27T03:10:48.785Z,2.00
2022-07-27T03:13:52.634Z,2.00
2022-07-27T03:16:56.341Z,2.27
2022-07-27T03:20:00.033Z,1.73
2022-07-27T03:23:03.638Z,1.80
2022-07-27T03:26:08.686Z,2.37
2022-07-27T03:29:13.624Z,2.20
2022-07-27T03:32:17.705Z,1.70
2022-07-27T03:35:21.428Z,2.40
2022-07-27T03:38:25.095Z,2.20
2022-07-27T03:41:30.289Z,2.07
2022-07-27T03:44:34.137Z,2.10
2022-07-27T03:47:37.972Z,2.37
2022-07-27T03:50:41.933Z,2.13
2022-07-27T03:53:46.049Z,2.10
2022-07-27T03:56:51.007Z,2.30
2022-07-27T03:59:54.629Z,2.03
2022-07-27T04:02:58.272Z,2.00
2022-07-27T04:06:02.072Z,2.47
2022-07-27T04:09:08.486Z,2.00
2022-07-27T04:12:14.078Z,2.13
2022-07-27T04:15:22.352Z,1.70
2022-07-27T04:18:26.049Z,1.87
2022-07-27T04:21:33.632Z,1.80
2022-07-27T04:24:37.580Z,2.30
2022-07-27T04:27:42.611Z,2.27
2022-07-27T04:30:46.314Z,2.10
2022-07-27T04:33:50.233Z,2.47
2022-07-27T04:36:53.837Z,1.73
2022-07-27T04:39:58.895Z,2.03
2022-07-27T04:43:06.583Z,2.03
2022-07-27T04:46:15.318Z,2.13
2022-07-27T04:49:22.460Z,2.07
2022-07-27T04:52:26.855Z,1.77
2022-07-27T04:55:32.618Z,2.07
2022-07-27T04:58:38.040Z,1.97
2022-07-27T05:01:41.784Z,1.90
2022-07-27T05:04:45.543Z,1.90
2022-07-27T05:07:49.276Z,2.10
2022-07-27T05:10:52.909Z,1.80
2022-07-27T05:13:57.905Z,1.90
2022-07-27T05:17:01.714Z,1.83
2022-07-27T05:20:10.813Z,2.27
2022-07-27T05:23:14.504Z,2.20
2022-07-27T05:26:18.228Z,1.87
2022-07-27T05:29:23.966Z,2.20
2022-07-27T05:32:28.138Z,1.97
2022-07-27T05:35:32.261Z,1.63
2022-07-27T05:38:39.636Z,1.70
2022-07-27T05:41:44.703Z,1.93
2022-07-27T05:44:55.405Z,1.90
2022-07-27T05:48:00.675Z,2.17
2022-07-27T05:51:05.077Z,2.40
2022-07-27T05:54:09.752Z,2.37
2022-07-27T05:57:15.787Z,2.00
2022-07-27T06:00:21.615Z,2.20
2022-07-27T06:03:26.456Z,2.40
2022-07-27T06:06:48.250Z,2.07
2022-07-27T06:09:53.468Z,2.03
2022-07-27T06:12:58.053Z,2.27
2022-07-27T06:16:05.526Z,2.07
2022-07-27T06:19:10.764Z,2.10
2022-07-27T06:22:15.757Z,1.60
2022-07-27T06:25:21.303Z,1.30
2022-07-27T06:28:26.786Z,1.63
2022-07-27T06:31:35.593Z,1.20
2022-07-27T06:34:46.487Z,1.13
2022-07-27T06:37:55.317Z,1.40
2022-07-27T06:41:00.133Z,1.60
2022-07-27T06:44:05.426Z,1.07
2022-07-27T06:47:11.362Z,1.23
2022-07-27T06:50:16.188Z,1.60
2022-07-27T06:53:21.700Z,1.33
2022-07-27T06:56:26.334Z,1.20
2022-07-27T06:59:42.684Z,1.03
2022-07-27T07:02:59.216Z,1.00
2022-07-27T07:06:03.668Z,1.00
2022-07-27T07:09:09.069Z,1.10
2022-07-27T07:12:14.598Z,0.83
2022-07-27T07:15:26.704Z,1.00
2022-07-27T07:18:32.489Z,1.13
2022-07-27T07:21:38.314Z,0.93
2022-07-27T07:24:42.555Z,1.03
2022-07-27T07:27:47.145Z,0.93
2022-07-27T07:30:52.119Z,1.07
2022-07-27T07:33:57.683Z,1.53
2022-07-27T07:37:02.082Z,1.10
2022-07-27T07:40:42.524Z,1.20
2022-07-27T07:43:37.073Z,1.10
2022-07-27T07:46:47.069Z,1.20
2022-07-27T07:49:53.681Z,1.30
2022-07-27T07:52:58.276Z,1.10
2022-07-27T07:56:03.088Z,1.50
2022-07-27T07:59:07.525Z,1.17
2022-07-27T08:02:11.721Z,0.90
2022-07-27T08:05:19.809Z,1.13
2022-07-27T08:08:25.094Z,1.40
2022-07-27T08:11:29.564Z,1.33
2022-07-27T08:14:34.379Z,1.30
2022-07-27T08:17:38.744Z,0.90
2022-07-27T08:20:46.286Z,1.03
2022-07-27T08:23:50.609Z,0.90
2022-07-27T08:26:54.866Z,1.07
2022-07-27T08:29:59.269Z,0.90
2022-07-27T08:33:07.396Z,1.43
2022-07-27T08:36:13.093Z,1.10
2022-07-27T08:39:52.669Z,0.93
2022-07-27T08:42:44.592Z,1.43
2022-07-27T08:45:59.054Z,1.10
2022-07-27T08:49:04.292Z,1.20
2022-07-27T08:52:12.111Z,1.37
2022-07-27T08:55:16.613Z,1.77
2022-07-27T08:58:20.993Z,1.93
2022-07-27T09:01:27.058Z,1.50
2022-07-27T09:04:31.420Z,0.90
2022-07-27T09:07:37.554Z,1.27
2022-07-27T09:10:42.452Z,1.50
2022-07-27T09:13:46.972Z,1.73
2022-07-27T09:17:45.964Z,1.23
2022-07-27T09:20:18.991Z,1.43
2022-07-27T09:23:29.719Z,1.20
2022-07-27T09:26:34.893Z,1.30
2022-07-27T09:29:39.507Z,1.00
2022-07-27T09:32:59.300Z,1.00
2022-07-27T09:36:03.794Z,1.20
2022-07-27T09:39:09.450Z,0.90
2022-07-27T09:43:05.518Z,1.50
2022-07-27T09:45:51.262Z,1.13
2022-07-27T09:48:56.277Z,1.17
2022-07-27T09:52:11.324Z,1.47
2022-07-27T09:55:21.801Z,1.30
2022-07-27T09:58:42.492Z,2.10
2022-07-27T10:01:54.547Z,1.90
2022-07-27T10:04:59.337Z,1.20
2022-07-27T10:08:04.322Z,1.00
2022-07-27T10:11:10.545Z,1.30
2022-07-27T10:14:15.363Z,1.40
2022-07-27T10:17:19.553Z,1.13
2022-07-27T10:20:23.259Z,1.27
2022-07-27T10:23:30.131Z,1.07
2022-07-27T10:26:39.115Z,0.90
2022-07-27T10:29:44.445Z,1.20
2022-07-27T10:32:48.081Z,0.93
2022-07-27T10:35:51.804Z,1.00
2022-07-27T10:38:58.432Z,0.70
2022-07-27T10:42:28.911Z,0.83
2022-07-27T10:45:52.624Z,1.03
2022-07-27T10:49:20.234Z,0.83
2022-07-27T10:52:43.255Z,0.93
2022-07-27T10:55:52.072Z,1.17
2022-07-27T10:58:57.104Z,1.30
2022-07-27T11:02:00.900Z,0.97
2022-07-27T11:05:07.084Z,1.13
2022-07-27T11:11:39.904Z,0.90
2022-07-27T11:14:52.586Z,1.10
2022-07-27T11:18:02.683Z,1.30
2022-07-27T11:21:21.879Z,1.10
2022-07-27T11:24:29.244Z,1.63
2022-07-27T11:27:33.828Z,1.40
2022-07-27T11:30:40.006Z,0.80
2022-07-27T11:33:57.973Z,0.73
2022-07-27T11:37:03.314Z,1.00
2022-07-27T11:40:37.447Z,0.90
2022-07-27T11:43:41.585Z,0.97
2022-07-27T11:46:56.340Z,1.10
2022-07-27T11:50:08.411Z,0.93
2022-07-27T11:53:12.212Z,1.20
2022-07-27T11:56:24.292Z,1.10
2022-07-27T11:59:33.642Z,1.03
2022-07-27T12:02:39.079Z,1.17
2022-07-27T12:05:43.310Z,1.50
2022-07-27T12:08:47.140Z,1.30
2022-07-27T12:11:56.379Z,1.20
2022-07-27T12:15:22.035Z,1.40
2022-07-27T12:18:41.638Z,1.00
2022-07-27T12:21:53.499Z,1.00
2022-07-27T12:24:58.876Z,1.00
2022-07-27T12:28:06.561Z,0.63
2022-07-27T12:31:19.142Z,0.80
2022-07-27T12:34:24.298Z,0.77
2022-07-27T12:37:33.339Z,1.00
2022-07-27T12:40:46.332Z,0.80
2022-07-27T12:44:06.834Z,0.90
2022-07-27T12:47:28.785Z,0.60
2022-07-27T12:50:34.366Z,0.73
2022-07-27T12:53:39.886Z,0.70
2022-07-27T12:56:43.637Z,0.97
2022-07-27T12:59:47.560Z,0.87
2022-07-27T13:02:51.771Z,0.90
2022-07-27T13:05:57.012Z,0.63
2022-07-27T13:09:00.617Z,0.70
2022-07-27T13:12:04.804Z,0.70
2022-07-27T13:15:10.805Z,0.93
2022-07-27T13:18:14.385Z,0.70
2022-07-27T13:21:20.232Z,0.80
2022-07-27T13:24:23.964Z,0.70
2022-07-27T13:27:28.656Z,0.80
2022-07-27T13:30:32.897Z,0.60
2022-07-27T13:33:37.403Z,1.13
2022-07-27T13:36:43.073Z,1.00
2022-07-27T13:39:47.719Z,0.80
2022-07-27T13:42:51.964Z,0.90
2022-07-27T13:45:56.433Z,0.70
2022-07-27T13:49:01.054Z,0.90
2022-07-27T13:52:09.160Z,0.60
2022-07-27T13:55:13.861Z,1.00
2022-07-27T13:58:18.013Z,0.70
2022-07-27T14:01:22.882Z,0.60
2022-07-27T14:04:27.665Z,0.70
2022-07-27T14:07:35.130Z,0.77
2022-07-27T14:10:42.890Z,1.07
2022-07-27T14:13:47.513Z,0.90
2022-07-27T14:16:52.098Z,1.20
2022-07-27T14:19:56.445Z,1.20
2022-07-27T14:23:02.067Z,1.50
2022-07-27T14:26:08.928Z,1.17
2022-07-27T14:29:12.769Z,1.20
2022-07-27T14:32:17.558Z,0.97
2022-07-27T14:35:23.123Z,0.90
2022-07-27T14:38:30.956Z,1.10
2022-07-27T14:41:35.441Z,0.90
2022-07-27T14:44:39.070Z,1.00
2022-07-27T14:47:43.260Z,0.97
2022-07-27T14:50:47.664Z,0.80
2022-07-27T14:53:52.678Z,1.20
2022-07-27T14:56:58.231Z,1.00
2022-07-27T15:00:02.130Z,1.10
2022-07-27T15:03:07.271Z,1.20
2022-07-27T15:06:11.179Z,0.80
2022-07-27T15:09:16.913Z,1.00
2022-07-27T15:12:23.152Z,0.83
2022-07-27T15:15:35.581Z,0.80
2022-07-27T15:18:40.311Z,0.90
2022-07-27T15:21:44.011Z,1.30
2022-07-27T15:24:49.108Z,0.87
2022-07-27T15:27:52.674Z,1.93
2022-07-27T15:30:56.586Z,1.37
2022-07-27T15:34:00.229Z,1.00
2022-07-27T15:37:07.431Z,0.90
2022-07-27T15:40:31.018Z,1.63
2022-07-27T15:43:35.346Z,1.00
2022-07-27T15:46:39.027Z,1.00
2022-07-27T15:49:42.821Z,1.17
2022-07-27T15:52:46.512Z,1.00
2022-07-27T15:55:52.984Z,0.90
2022-07-27T15:58:56.836Z,0.97
2022-07-27T16:02:00.551Z,0.87
2022-07-27T16:05:04.383Z,0.70
2022-07-27T16:08:11.513Z,0.80
2022-07-27T16:11:16.847Z,0.50
2022-07-27T16:14:20.495Z,0.87
2022-07-27T16:17:24.412Z,1.17
2022-07-27T16:20:28.034Z,0.93
2022-07-27T16:23:31.766Z,1.00
2022-07-27T16:26:36.856Z,0.77
2022-07-27T16:29:40.576Z,0.73
2022-07-27T16:32:44.191Z,0.73
2022-07-27T16:35:48.144Z,1.00
2022-07-27T16:38:52.516Z,0.70
2022-07-27T16:41:58.465Z,0.83
2022-07-27T16:45:02.382Z,1.00
2022-07-27T16:48:06.422Z,1.20
2022-07-27T16:51:11.187Z,1.10
2022-07-27T16:54:14.998Z,1.60
2022-07-27T16:57:20.456Z,0.70
2022-07-27T17:00:24.290Z,0.90
2022-07-27T17:03:28.183Z,1.30
2022-07-27T17:06:32.035Z,1.33
2022-07-27T17:09:35.696Z,0.83
2022-07-27T17:12:41.352Z,1.07
2022-07-27T17:15:46.387Z,1.50
2022-07-27T17:18:50.036Z,0.80
2022-07-27T17:21:53.651Z,0.70
2022-07-27T17:24:57.421Z,1.47
2022-07-27T17:28:02.507Z,1.30
2022-07-27T17:31:07.195Z,0.90
2022-07-27T17:34:10.959Z,1.20
2022-07-27T17:37:15.277Z,0.70
2022-07-27T17:40:19.125Z,0.80
2022-07-27T17:43:26.709Z,0.80
2022-07-27T17:46:33.114Z,1.27
2022-07-27T17:49:39.191Z,0.90
2022-07-27T17:52:42.930Z,0.90
2022-07-27T17:55:46.532Z,0.63
2022-07-27T17:58:51.988Z,0.60
2022-07-27T18:01:56.595Z,0.80
2022-07-27T18:05:00.430Z,1.00
2022-07-27T18:08:04.120Z,1.37
2022-07-27T18:11:09.915Z,0.90
2022-07-27T18:14:15.026Z,0.70
2022-07-27T18:17:18.672Z,0.97
2022-07-27T18:20:22.395Z,0.93
2022-07-27T18:23:27.067Z,0.73
2022-07-27T18:26:31.111Z,1.60
2022-07-27T18:29:36.244Z,0.80
2022-07-27T18:32:39.948Z,1.10
2022-07-27T18:35:44.239Z,0.90
2022-07-27T18:38:49.741Z,1.00
2022-07-27T18:41:53.503Z,1.07
2022-07-27T18:44:58.452Z,0.90
2022-07-27T18:48:02.284Z,1.10
2022-07-27T18:51:06.052Z,0.87
2022-07-27T18:54:09.759Z,1.10
2022-07-27T18:57:13.528Z,1.40
2022-07-27T19:00:19.779Z,1.10
2022-07-27T19:03:27.782Z,1.20
2022-07-27T19:06:31.849Z,1.60
2022-07-27T19:09:35.844Z,1.30
2022-07-27T19:12:39.981Z,1.03
2022-07-27T19:15:45.488Z,0.97
2022-07-27T19:18:49.152Z,1.30
2022-07-27T19:21:52.766Z,0.97
2022-07-27T19:24:56.779Z,0.90
2022-07-27T19:28:00.951Z,0.90
2022-07-27T19:31:06.609Z,1.17
2022-07-27T19:34:27.676Z,1.10
2022-07-27T19:37:31.469Z,1.07
2022-07-27T19:40:45.323Z,1.10
2022-07-27T19:43:51.777Z,1.53
2022-07-27T19:46:57.966Z,1.30
2022-07-27T19:50:01.840Z,1.00
2022-07-27T19:53:06.635Z,0.87
2022-07-27T19:56:11.234Z,0.83
2022-07-27T19:59:16.072Z,1.03
2022-07-27T20:02:21.747Z,1.17
2022-07-27T20:05:26.754Z,0.93
2022-07-27T20:08:32.225Z,1.30
2022-07-27T20:11:36.735Z,0.90
2022-07-27T20:14:40.412Z,1.10
2022-07-27T20:17:45.536Z,0.90
2022-07-27T20:20:49.241Z,0.90
2022-07-27T20:23:54.519Z,1.00
2022-07-27T20:26:59.052Z,1.23
2022-07-27T20:30:02.755Z,1.00
2022-07-27T20:33:08.472Z,0.80
2022-07-27T20:36:12.182Z,1.07
2022-07-27T20:39:17.688Z,0.87
2022-07-27T20:42:22.819Z,1.10
2022-07-27T20:45:26.792Z,1.13
2022-07-27T20:48:33.803Z,1.10
2022-07-27T20:51:37.361Z,1.10
2022-07-27T20:54:41.215Z,1.23
2022-07-27T20:57:44.812Z,1.33
2022-07-27T21:00:48.594Z,1.50
2022-07-27T21:03:53.859Z,1.10
2022-07-27T21:06:57.634Z,1.47
2022-07-27T21:10:01.388Z,1.10
2022-07-27T21:13:05.039Z,1.27
2022-07-27T21:16:09.023Z,2.27
2022-07-27T21:19:14.447Z,1.10
2022-07-27T21:22:18.830Z,1.43
2022-07-27T21:25:22.918Z,1.27
2022-07-27T21:28:27.646Z,1.57
2022-07-27T21:31:31.452Z,1.90
2022-07-27T21:34:36.485Z,1.37
2022-07-27T21:37:40.302Z,1.33
2022-07-27T21:40:43.951Z,1.30
2022-07-27T21:43:47.618Z,1.50
2022-07-27T21:46:52.878Z,1.80
2022-07-27T21:49:57.870Z,1.50
2022-07-27T21:53:01.528Z,1.40
2022-07-27T21:56:06.123Z,1.60
2022-07-27T21:59:09.807Z,1.43
2022-07-27T22:02:13.993Z,1.50
2022-07-27T22:05:19.220Z,1.30
2022-07-27T22:08:22.900Z,1.17
2022-07-27T22:11:26.508Z,1.27
2022-07-27T22:14:30.190Z,1.50
2022-07-27T22:17:33.878Z,1.30
2022-07-27T22:20:38.977Z,1.00
2022-07-27T22:23:42.647Z,1.10
2022-07-27T22:26:46.321Z,1.30
2022-07-27T22:29:49.940Z,1.63
2022-07-27T22:32:53.676Z,1.20
2022-07-27T22:35:58.644Z,1.60
2022-07-27T22:39:02.274Z,1.30
2022-07-27T22:42:06.959Z,1.13
2022-07-27T22:45:11.703Z,1.60
2022-07-27T22:48:15.360Z,1.10
2022-07-27T22:51:20.305Z,1.17
2022-07-27T22:54:24.607Z,1.57
2022-07-27T22:57:28.408Z,1.40
2022-07-27T23:00:32.057Z,1.57
2022-07-27T23:03:35.751Z,1.53
2022-07-27T23:06:40.778Z,1.27
2022-07-27T23:09:44.445Z,1.37
2022-07-27T23:12:48.036Z,1.30
2022-07-27T23:15:51.836Z,1.37
2022-07-27T23:18:55.908Z,1.57
2022-07-27T23:22:01.666Z,1.40
2022-07-27T23:25:07.197Z,1.40
2022-07-27T23:28:11.198Z,1.30
2022-07-27T23:31:15.928Z,1.47
2022-07-27T23:34:19.752Z,1.40
2022-07-27T23:37:24.817Z,1.53
2022-07-27T23:40:28.650Z,1.37
2022-07-27T23:43:32.291Z,1.40
2022-07-27T23:46:36.000Z,1.33
2022-07-27T23:49:39.691Z,1.70
2022-07-27T23:52:44.984Z,1.57
2022-07-27T23:55:48.724Z,1.50
2022-07-27T23:58:52.427Z,1.53
